createdAt,value
2023-09-20T00:02:14.024Z,13.43
2023-09-20T00:04:43.466Z,10.65
2023-09-20T00:07:11.056Z,11.35
2023-09-20T00:09:39.800Z,11.50
2023-09-20T00:12:08.137Z,12.40
2023-09-20T00:14:35.739Z,9.83
2023-09-20T00:17:03.229Z,10.75
2023-09-20T00:19:30.615Z,13.05
2023-09-20T00:21:57.952Z,10.88
2023-09-20T00:24:25.323Z,10.30
2023-09-20T00:26:52.663Z,11.40
2023-09-20T00:29:20.086Z,12.00
2023-09-20T00:31:47.524Z,12.20
2023-09-20T00:34:14.976Z,10.93
2023-09-20T00:36:42.287Z,8.07
2023-09-20T00:39:11.482Z,9.33
2023-09-20T00:41:38.838Z,9.45
2023-09-20T00:44:06.414Z,12.80
2023-09-20T00:46:33.839Z,8.75
2023-09-20T00:49:01.598Z,9.00
2023-09-20T00:51:29.117Z,7.93
2023-09-20T00:54:04.469Z,9.45
2023-09-20T00:56:33.012Z,9.55
2023-09-20T00:59:05.995Z,7.63
2023-09-20T01:01:35.132Z,8.52
2023-09-20T01:04:03.976Z,9.47
2023-09-20T01:06:31.494Z,9.93
2023-09-20T01:08:59.337Z,9.30
2023-09-20T01:11:26.695Z,9.10
2023-09-20T01:13:54.200Z,11.10
2023-09-20T01:16:21.718Z,8.73
2023-09-20T01:18:49.535Z,9.85
2023-09-20T01:21:16.993Z,7.13
2023-09-20T01:23:44.648Z,9.93
2023-09-20T01:26:15.286Z,9.13
2023-09-20T01:28:43.065Z,8.67
2023-09-20T01:31:11.944Z,9.43
2023-09-20T01:33:39.494Z,6.80
2023-09-20T01:36:07.691Z,9.90
2023-09-20T01:38:36.024Z,8.65
2023-09-20T01:41:04.951Z,6.47
2023-09-20T01:43:32.609Z,6.25
2023-09-20T01:46:00.159Z,7.60
2023-09-20T01:48:28.787Z,8.45
2023-09-20T01:50:56.318Z,7.40
2023-09-20T01:53:25.892Z,8.77
2023-09-20T01:55:53.617Z,7.50
2023-09-20T01:58:21.021Z,7.28
2023-09-20T02:00:52.369Z,7.50
2023-09-20T02:03:20.578Z,7.18
2023-09-20T02:05:49.767Z,8.33
2023-09-20T02:08:18.136Z,7.70
2023-09-20T02:10:46.304Z,7.43
2023-09-20T02:13:16.516Z,7.75
2023-09-20T02:15:45.287Z,9.02
2023-09-20T02:18:13.370Z,7.20
2023-09-20T02:20:41.614Z,7.70
2023-09-20T02:23:14.203Z,8.25
2023-09-20T02:25:57.239Z,9.85
2023-09-20T02:28:24.697Z,8.00
2023-09-20T02:30:52.589Z,11.35
2023-09-20T02:33:20.641Z,8.98
2023-09-20T02:35:47.954Z,10.37
2023-09-20T02:38:15.343Z,9.43
2023-09-20T02:40:42.806Z,8.63
2023-09-20T02:43:10.773Z,9.65
2023-09-20T02:45:41.223Z,11.77
2023-09-20T02:48:09.550Z,18.10
2023-09-20T02:50:37.741Z,9.82
2023-09-20T02:53:07.142Z,15.10
2023-09-20T02:55:35.093Z,14.40
2023-09-20T02:58:02.643Z,16.88
2023-09-20T03:00:33.313Z,15.87
2023-09-20T03:03:02.821Z,14.40
2023-09-20T03:05:32.317Z,11.75
2023-09-20T03:08:03.383Z,9.63
2023-09-20T03:10:31.149Z,8.43
2023-09-20T03:12:59.345Z,9.23
2023-09-20T03:15:29.846Z,8.13
2023-09-20T03:18:05.077Z,8.70
2023-09-20T03:20:35.889Z,10.93
2023-09-20T03:23:06.477Z,9.82
2023-09-20T03:25:39.303Z,10.63
2023-09-20T03:28:15.245Z,7.78
2023-09-20T03:30:42.758Z,9.48
2023-09-20T03:33:10.452Z,9.07
2023-09-20T03:35:39.292Z,9.25
2023-09-20T03:38:07.196Z,10.47
2023-09-20T03:40:34.868Z,9.80
2023-09-20T03:43:04.726Z,9.82
2023-09-20T03:45:33.276Z,16.02
2023-09-20T03:48:02.847Z,10.73
2023-09-20T03:50:31.007Z,10.40
2023-09-20T03:53:01.324Z,12.82
2023-09-20T03:55:29.090Z,11.27
2023-09-20T03:57:57.347Z,14.02
2023-09-20T04:00:30.027Z,13.10
2023-09-20T04:03:00.229Z,14.30
2023-09-20T04:05:43.962Z,17.42
2023-09-20T04:08:12.961Z,19.77
2023-09-20T04:10:42.266Z,20.85
2023-09-20T04:13:10.370Z,22.27
2023-09-20T04:15:42.252Z,22.97
2023-09-20T04:18:10.793Z,23.38
2023-09-20T04:20:39.950Z,33.72
2023-09-20T04:23:08.423Z,26.33
2023-09-20T04:25:35.951Z,32.70
2023-09-20T04:28:03.513Z,29.67
2023-09-20T04:30:32.428Z,22.75
2023-09-20T04:33:00.681Z,28.08
2023-09-20T04:35:35.163Z,28.45
2023-09-20T04:38:05.336Z,21.98
2023-09-20T04:40:33.289Z,29.43
2023-09-20T04:43:00.595Z,29.88
2023-09-20T04:45:29.640Z,29.88
2023-09-20T04:47:58.452Z,51.17
2023-09-20T04:50:26.788Z,41.88
2023-09-20T04:52:55.334Z,35.83
2023-09-20T04:55:22.661Z,36.42
2023-09-20T04:57:50.169Z,34.42
2023-09-20T05:00:21.992Z,27.27
2023-09-20T05:02:49.427Z,24.90
2023-09-20T05:05:17.702Z,26.40
2023-09-20T05:07:46.090Z,24.65
2023-09-20T05:10:13.538Z,23.35
2023-09-20T05:12:42.452Z,20.13
2023-09-20T05:15:14.246Z,19.20
2023-09-20T05:17:44.567Z,16.27
2023-09-20T05:20:15.162Z,17.90
2023-09-20T05:22:42.643Z,14.85
2023-09-20T05:25:11.285Z,14.13
2023-09-20T05:27:38.883Z,14.10
2023-09-20T05:30:06.986Z,15.50
2023-09-20T05:32:34.538Z,16.65
2023-09-20T05:35:01.945Z,14.43
2023-09-20T05:37:29.420Z,19.85
2023-09-20T05:39:56.782Z,16.90
2023-09-20T05:42:24.489Z,22.33
2023-09-20T05:44:51.812Z,16.55
2023-09-20T05:47:19.202Z,16.13
2023-09-20T05:49:46.583Z,17.90
2023-09-20T05:52:14.040Z,18.10
2023-09-20T05:54:44.461Z,17.23
2023-09-20T05:57:14.036Z,18.85
2023-09-20T05:59:41.416Z,20.05
2023-09-20T06:02:08.854Z,18.27
2023-09-20T06:04:37.303Z,20.98
2023-09-20T06:07:06.865Z,22.27
2023-09-20T06:09:34.244Z,20.25
2023-09-20T06:12:05.564Z,22.42
2023-09-20T06:14:32.931Z,16.45
2023-09-20T06:17:01.508Z,18.45
2023-09-20T06:19:31.823Z,15.40
2023-09-20T06:21:59.303Z,19.42
2023-09-20T06:24:26.627Z,19.60
2023-09-20T06:26:54.324Z,17.00
2023-09-20T06:29:22.514Z,14.45
2023-09-20T06:31:49.851Z,14.27
2023-09-20T06:34:18.897Z,14.57
2023-09-20T06:36:46.358Z,16.17
2023-09-20T06:39:14.921Z,15.80
2023-09-20T06:41:43.662Z,14.80
2023-09-20T06:44:13.857Z,14.27
2023-09-20T06:46:43.882Z,15.85
2023-09-20T06:49:11.461Z,15.85
2023-09-20T06:51:38.868Z,15.00
2023-09-20T06:54:06.651Z,18.55
2023-09-20T06:56:34.253Z,22.47
2023-09-20T06:59:02.381Z,19.73
2023-09-20T07:01:30.327Z,16.05
2023-09-20T07:03:57.699Z,17.67
2023-09-20T07:06:26.141Z,15.75
2023-09-20T07:08:53.460Z,15.60
2023-09-20T07:11:20.790Z,18.58
2023-09-20T07:13:48.464Z,17.75
2023-09-20T07:16:15.945Z,15.38
2023-09-20T07:18:45.500Z,12.73
2023-09-20T07:21:15.465Z,14.13
2023-09-20T07:23:42.943Z,14.35
2023-09-20T07:26:13.314Z,13.65
2023-09-20T07:28:44.206Z,14.60
2023-09-20T07:31:11.596Z,13.35
2023-09-20T07:33:39.916Z,11.97
2023-09-20T07:36:07.470Z,14.23
2023-09-20T07:38:37.933Z,10.25
2023-09-20T07:41:19.408Z,13.57
2023-09-20T07:43:48.606Z,14.15
2023-09-20T07:46:17.009Z,13.20
2023-09-20T07:48:53.983Z,12.80
2023-09-20T07:51:21.757Z,15.07
2023-09-20T07:53:51.176Z,15.75
2023-09-20T07:56:18.878Z,16.08
2023-09-20T07:58:46.329Z,15.93
2023-09-20T08:01:14.219Z,15.25
2023-09-20T08:03:52.137Z,14.10
2023-09-20T08:06:20.828Z,15.63
2023-09-20T08:08:50.990Z,15.77
2023-09-20T08:11:21.244Z,14.27
2023-09-20T08:13:53.495Z,16.38
2023-09-20T08:16:21.700Z,18.23
2023-09-20T08:19:06.125Z,12.93
2023-09-20T08:21:34.438Z,15.07
2023-09-20T08:24:24.047Z,11.80
2023-09-20T08:27:10.132Z,15.50
2023-09-20T08:29:58.336Z,12.93
2023-09-20T08:32:46.624Z,13.63
2023-09-20T08:35:32.718Z,16.33
2023-09-20T08:38:18.971Z,14.50
2023-09-20T08:41:05.055Z,12.50
2023-09-20T08:43:53.704Z,14.73
2023-09-20T08:46:39.905Z,14.10
2023-09-20T08:49:26.172Z,13.15
2023-09-20T08:52:21.540Z,11.77
2023-09-20T08:55:08.280Z,13.52
2023-09-20T08:57:54.434Z,13.82
2023-09-20T09:00:32.232Z,15.70
2023-09-20T09:03:01.317Z,13.60
2023-09-20T09:05:30.162Z,12.83
2023-09-20T09:07:58.820Z,12.70
2023-09-20T09:10:26.860Z,13.77
2023-09-20T09:12:54.468Z,12.07
2023-09-20T09:15:22.435Z,14.10
2023-09-20T09:17:49.971Z,16.00
2023-09-20T09:20:22.509Z,16.02
2023-09-20T09:22:53.677Z,13.43
2023-09-20T09:25:32.866Z,13.38
2023-09-20T09:28:00.918Z,13.80
2023-09-20T09:30:28.414Z,13.97
2023-09-20T09:32:56.173Z,13.57
2023-09-20T09:35:39.956Z,13.43
2023-09-20T09:38:13.723Z,22.77
2023-09-20T09:40:58.192Z,15.38
2023-09-20T09:43:32.354Z,19.37
2023-09-20T09:46:09.228Z,18.00
2023-09-20T09:48:40.617Z,18.63
2023-09-20T09:51:08.452Z,15.60
2023-09-20T09:53:38.843Z,19.02
2023-09-20T09:56:06.684Z,12.27
2023-09-20T09:58:34.626Z,14.15
2023-09-20T10:01:06.752Z,14.77
2023-09-20T10:03:35.602Z,14.65
2023-09-20T10:06:09.878Z,12.70
2023-09-20T10:08:39.998Z,14.30
2023-09-20T10:11:08.375Z,13.55
2023-09-20T10:13:37.144Z,17.45
2023-09-20T10:16:12.605Z,28.27
2023-09-20T10:18:55.646Z,15.38
2023-09-20T10:21:27.645Z,15.90
2023-09-20T10:23:59.139Z,17.30
2023-09-20T10:26:27.836Z,20.23
2023-09-20T10:29:01.972Z,15.77
2023-09-20T10:31:32.856Z,13.88
2023-09-20T10:34:03.799Z,11.60
2023-09-20T10:36:31.961Z,13.63
2023-09-20T10:39:18.418Z,13.90
2023-09-20T10:41:46.820Z,18.75
2023-09-20T10:44:36.944Z,12.95
2023-09-20T10:47:15.249Z,12.10
2023-09-20T10:49:49.502Z,16.60
2023-09-20T10:52:57.658Z,12.75
2023-09-20T10:55:25.098Z,12.85
2023-09-20T10:57:52.748Z,14.35
2023-09-20T11:00:26.631Z,10.83
2023-09-20T11:02:54.284Z,12.23
2023-09-20T11:05:24.917Z,11.80
2023-09-20T11:07:54.459Z,11.93
2023-09-20T11:10:22.229Z,10.30
2023-09-20T11:12:51.406Z,10.30
2023-09-20T11:15:19.480Z,13.32
2023-09-20T11:17:48.395Z,10.60
2023-09-20T11:20:15.997Z,9.95
2023-09-20T11:22:43.360Z,11.85
2023-09-20T11:25:10.727Z,11.37
2023-09-20T11:27:39.425Z,9.40
2023-09-20T11:30:09.285Z,11.68
2023-09-20T11:32:41.290Z,9.50
2023-09-20T11:35:09.160Z,8.57
2023-09-20T11:37:36.950Z,8.73
2023-09-20T11:40:06.467Z,9.43
2023-09-20T11:42:35.656Z,8.18
2023-09-20T11:45:35.989Z,10.82
2023-09-20T11:47:57.430Z,7.60
2023-09-20T11:50:26.444Z,8.53
2023-09-20T11:52:54.899Z,7.78
2023-09-20T11:55:23.528Z,8.38
2023-09-20T11:57:54.115Z,8.02
2023-09-20T12:00:25.624Z,7.93
2023-09-20T12:02:54.948Z,7.17
2023-09-20T12:05:25.376Z,7.97
2023-09-20T12:08:00.650Z,9.77
2023-09-20T12:10:31.295Z,8.38
2023-09-20T12:12:59.011Z,7.68
2023-09-20T12:15:26.576Z,9.33
2023-09-20T12:17:57.911Z,7.15
2023-09-20T12:20:26.289Z,8.45
2023-09-20T12:22:54.495Z,7.82
2023-09-20T12:25:22.070Z,8.32
2023-09-20T12:27:49.603Z,6.23
2023-09-20T12:30:17.077Z,6.55
2023-09-20T12:32:44.649Z,8.52
2023-09-20T12:35:12.524Z,5.93
2023-09-20T12:37:40.914Z,7.53
2023-09-20T12:40:09.677Z,8.77
2023-09-20T12:42:38.544Z,5.40
2023-09-20T12:45:09.934Z,4.15
2023-09-20T12:47:41.827Z,6.75
2023-09-20T12:50:14.393Z,5.75
2023-09-20T12:52:44.658Z,6.33
2023-09-20T12:55:13.000Z,8.80
2023-09-20T12:57:42.422Z,6.45
2023-09-20T13:00:15.363Z,7.22
2023-09-20T13:02:47.055Z,5.75
2023-09-20T13:05:14.760Z,5.20
2023-09-20T13:07:42.134Z,7.18
2023-09-20T13:10:14.631Z,5.72
2023-09-20T13:12:45.026Z,24.92
2023-09-20T13:15:14.064Z,9.32
2023-09-20T13:17:45.184Z,7.80
2023-09-20T13:20:14.642Z,4.72
2023-09-20T13:22:46.675Z,6.22
2023-09-20T13:25:20.302Z,12.45
2023-09-20T13:27:48.750Z,8.98
2023-09-20T13:30:16.767Z,4.97
2023-09-20T13:32:44.257Z,6.25
2023-09-20T13:35:17.087Z,5.38
2023-09-20T13:37:47.434Z,5.32
2023-09-20T13:40:24.265Z,5.43
2023-09-20T13:42:51.563Z,4.47
2023-09-20T13:45:23.533Z,6.03
2023-09-20T13:47:52.642Z,5.43
2023-09-20T13:50:20.237Z,4.97
2023-09-20T13:52:47.625Z,5.57
2023-09-20T13:55:15.332Z,3.20
2023-09-20T13:57:42.899Z,2.95
2023-09-20T14:00:16.562Z,4.57
2023-09-20T14:02:44.902Z,3.88
2023-09-20T14:05:15.990Z,4.47
2023-09-20T14:07:46.031Z,6.80
2023-09-20T14:10:14.239Z,8.95
2023-09-20T14:12:43.441Z,5.15
2023-09-20T14:15:16.080Z,3.40
2023-09-20T14:17:47.120Z,6.47
2023-09-20T14:20:19.862Z,4.87
2023-09-20T14:22:47.419Z,8.10
2023-09-20T14:25:14.898Z,3.42
2023-09-20T14:27:42.754Z,4.15
2023-09-20T14:30:11.761Z,5.03
2023-09-20T14:32:39.688Z,4.67
2023-09-20T14:35:08.926Z,4.57
2023-09-20T14:37:36.516Z,4.18
2023-09-20T14:40:04.678Z,8.10
2023-09-20T14:42:31.976Z,6.15
2023-09-20T14:44:59.341Z,4.80
2023-09-20T14:47:28.727Z,4.00
2023-09-20T14:49:56.316Z,5.72
2023-09-20T14:52:24.060Z,6.03
2023-09-20T14:54:54.111Z,7.53
2023-09-20T14:57:22.175Z,6.77
2023-09-20T14:59:49.699Z,9.88
2023-09-20T15:02:17.616Z,8.70
2023-09-20T15:04:45.113Z,4.25
2023-09-20T15:07:12.789Z,3.35
2023-09-20T15:09:42.053Z,4.47
2023-09-20T15:12:09.589Z,5.50
2023-09-20T15:14:38.617Z,3.75
2023-09-20T15:17:08.023Z,4.45
2023-09-20T15:19:35.338Z,5.22
2023-09-20T15:22:02.646Z,5.40
2023-09-20T15:24:29.941Z,6.88
2023-09-20T15:26:57.688Z,6.22
2023-09-20T15:29:25.101Z,3.88
2023-09-20T15:31:52.506Z,5.32
2023-09-20T15:34:19.875Z,4.07
2023-09-20T15:36:47.231Z,4.97
2023-09-20T15:39:16.707Z,3.88
2023-09-20T15:41:46.340Z,2.78
2023-09-20T15:44:13.826Z,4.55
2023-09-20T15:46:43.360Z,5.70
2023-09-20T15:49:10.768Z,4.72
2023-09-20T15:51:38.056Z,5.03
2023-09-20T15:54:05.530Z,5.30
2023-09-20T15:56:32.889Z,4.60
2023-09-20T15:59:02.258Z,4.07
2023-09-20T16:01:31.853Z,5.47
2023-09-20T16:04:04.415Z,4.38
2023-09-20T16:06:31.819Z,4.40
2023-09-20T16:09:00.168Z,6.57
2023-09-20T16:11:27.719Z,5.00
2023-09-20T16:13:55.067Z,4.38
2023-09-20T16:16:22.748Z,5.63
2023-09-20T16:18:51.154Z,5.35
2023-09-20T16:21:18.522Z,4.95
2023-09-20T16:23:47.376Z,5.40
2023-09-20T16:26:14.841Z,5.65
2023-09-20T16:28:42.134Z,7.20
2023-09-20T16:31:10.511Z,6.15
2023-09-20T16:33:38.717Z,6.28
2023-09-20T16:36:06.398Z,5.83
2023-09-20T16:38:35.178Z,9.80
2023-09-20T16:41:02.508Z,10.35
2023-09-20T16:43:29.875Z,6.88
2023-09-20T16:45:57.424Z,9.70
2023-09-20T16:48:24.867Z,8.73
2023-09-20T16:50:52.364Z,7.07
2023-09-20T16:53:19.685Z,7.90
2023-09-20T16:55:47.037Z,7.22
2023-09-20T16:58:15.506Z,6.65
2023-09-20T17:00:46.922Z,6.97
2023-09-20T17:03:14.668Z,6.45
2023-09-20T17:05:42.828Z,8.10
2023-09-20T17:08:10.920Z,5.63
2023-09-20T17:10:38.210Z,4.72
2023-09-20T17:13:06.118Z,7.00
2023-09-20T17:15:33.473Z,4.32
2023-09-20T17:18:01.324Z,6.70
2023-09-20T17:20:29.552Z,4.18
2023-09-20T17:22:57.124Z,7.80
2023-09-20T17:25:24.419Z,8.40
2023-09-20T17:27:51.794Z,4.90
2023-09-20T17:30:20.590Z,8.40
2023-09-20T17:32:51.251Z,5.68
2023-09-20T17:35:18.928Z,5.03
2023-09-20T17:37:46.337Z,4.07
2023-09-20T17:40:17.091Z,7.70
2023-09-20T17:42:44.906Z,7.03
2023-09-20T17:45:14.286Z,6.47
2023-09-20T17:47:45.247Z,7.82
2023-09-20T17:50:14.144Z,8.27
2023-09-20T17:52:42.401Z,10.38
2023-09-20T17:55:09.970Z,9.05
2023-09-20T17:57:38.586Z,16.50
2023-09-20T18:00:14.992Z,12.70
2023-09-20T18:02:42.689Z,12.53
2023-09-20T18:05:10.898Z,10.32
2023-09-20T18:07:38.720Z,12.07
2023-09-20T18:10:06.597Z,9.35
2023-09-20T18:12:35.820Z,11.25
2023-09-20T18:15:05.305Z,8.50
2023-09-20T18:17:34.732Z,7.85
2023-09-20T18:20:04.768Z,6.70
2023-09-20T18:22:32.205Z,9.52
2023-09-20T18:25:00.381Z,5.60
2023-09-20T18:27:30.373Z,5.33
2023-09-20T18:29:58.135Z,6.90
2023-09-20T18:32:25.772Z,7.85
2023-09-20T18:34:53.181Z,4.20
2023-09-20T18:37:24.855Z,6.32
2023-09-20T18:39:52.237Z,4.00
2023-09-20T18:42:20.851Z,4.38
2023-09-20T18:44:48.366Z,4.20
2023-09-20T18:47:16.177Z,6.43
2023-09-20T18:49:44.791Z,6.22
2023-09-20T18:52:14.740Z,6.90
2023-09-20T18:54:42.093Z,7.53
2023-09-20T18:57:11.826Z,7.57
2023-09-20T18:59:43.536Z,5.75
2023-09-20T19:02:12.319Z,5.75
2023-09-20T19:04:42.314Z,6.43
2023-09-20T19:07:12.904Z,6.90
2023-09-20T19:09:40.646Z,6.07
2023-09-20T19:12:09.042Z,5.40
2023-09-20T19:14:36.625Z,10.55
2023-09-20T19:17:04.022Z,5.73
2023-09-20T19:19:31.299Z,6.18
2023-09-20T19:21:58.812Z,6.60
2023-09-20T19:24:31.654Z,3.75
2023-09-20T19:26:59.377Z,4.80
2023-09-20T19:29:28.567Z,3.60
2023-09-20T19:31:56.078Z,6.60
2023-09-20T19:34:23.406Z,6.07
2023-09-20T19:36:50.808Z,5.93
2023-09-20T19:39:18.134Z,5.72
2023-09-20T19:41:45.470Z,7.97
2023-09-20T19:44:12.833Z,7.15
2023-09-20T19:46:40.226Z,8.82
2023-09-20T19:49:07.880Z,4.38
2023-09-20T19:51:36.661Z,5.55
2023-09-20T19:54:10.211Z,7.43
2023-09-20T19:56:38.522Z,4.95
2023-09-20T19:59:05.980Z,6.82
2023-09-20T20:01:35.122Z,10.73
2023-09-20T20:04:03.402Z,8.70
2023-09-20T20:06:31.188Z,5.27
2023-09-20T20:08:59.077Z,5.93
2023-09-20T20:11:26.415Z,6.15
2023-09-20T20:13:54.088Z,6.30
2023-09-20T20:16:21.679Z,5.75
2023-09-20T20:18:50.392Z,8.30
2023-09-20T20:21:18.953Z,7.93
2023-09-20T20:23:46.769Z,4.43
2023-09-20T20:26:14.434Z,7.00
2023-09-20T20:28:42.287Z,6.25
2023-09-20T20:31:10.521Z,6.20
2023-09-20T20:33:38.094Z,5.35
2023-09-20T20:36:07.074Z,7.93
2023-09-20T20:38:34.789Z,5.40
2023-09-20T20:41:02.180Z,4.10
2023-09-20T20:43:31.178Z,6.90
2023-09-20T20:45:59.348Z,6.25
2023-09-20T20:48:26.987Z,7.13
2023-09-20T20:50:54.601Z,5.93
2023-09-20T20:53:21.872Z,11.13
2023-09-20T20:55:53.483Z,9.83
2023-09-20T20:58:24.847Z,5.00
2023-09-20T21:00:55.716Z,6.65
2023-09-20T21:03:23.433Z,5.43
2023-09-20T21:05:51.049Z,8.85
2023-09-20T21:08:18.853Z,5.20
2023-09-20T21:10:47.358Z,6.07
2023-09-20T21:13:15.283Z,8.07
2023-09-20T21:15:46.459Z,8.73
2023-09-20T21:18:17.388Z,5.47
2023-09-20T21:20:52.383Z,4.73
2023-09-20T21:23:20.029Z,6.18
2023-09-20T21:25:49.962Z,6.18
2023-09-20T21:28:17.238Z,6.00
2023-09-20T21:30:45.032Z,5.75
2023-09-20T21:33:12.976Z,7.23
2023-09-20T21:35:42.157Z,8.35
2023-09-20T21:38:09.739Z,6.30
2023-09-20T21:40:39.373Z,7.13
2023-09-20T21:43:09.085Z,6.13
2023-09-20T21:45:36.847Z,6.97
2023-09-20T21:48:04.842Z,5.05
2023-09-20T21:50:32.446Z,4.60
2023-09-20T21:53:00.000Z,6.40
2023-09-20T21:55:29.245Z,6.80
2023-09-20T21:57:59.593Z,6.13
2023-09-20T22:00:26.972Z,10.30
2023-09-20T22:03:00.330Z,7.53
2023-09-20T22:05:28.489Z,7.05
2023-09-20T22:07:58.692Z,6.40
2023-09-20T22:10:26.957Z,7.93
2023-09-20T22:12:55.341Z,9.43
2023-09-20T22:15:24.813Z,6.20
2023-09-20T22:17:52.677Z,7.55
2023-09-20T22:20:25.456Z,5.82
2023-09-20T22:23:01.805Z,8.50
2023-09-20T22:25:32.329Z,5.35
2023-09-20T22:27:59.646Z,6.88
2023-09-20T22:30:27.677Z,11.35
2023-09-20T22:32:55.126Z,7.13
2023-09-20T22:35:22.691Z,7.03
2023-09-20T22:37:50.956Z,8.10
2023-09-20T22:40:19.009Z,6.93
2023-09-20T22:42:48.498Z,6.82
2023-09-20T22:45:24.413Z,7.13
2023-09-20T22:47:52.878Z,6.53
2023-09-20T22:50:24.407Z,9.63
2023-09-20T22:52:55.522Z,6.35
2023-09-20T22:55:25.260Z,6.03
2023-09-20T22:57:52.522Z,5.57
2023-09-20T23:00:30.796Z,6.70
2023-09-20T23:02:58.347Z,6.95
2023-09-20T23:05:26.560Z,9.57
2023-09-20T23:07:55.119Z,7.25
2023-09-20T23:10:25.598Z,5.90
2023-09-20T23:12:58.661Z,6.53
2023-09-20T23:15:31.948Z,7.60
2023-09-20T23:18:02.951Z,7.55
2023-09-20T23:20:34.608Z,5.65
2023-09-20T23:23:03.181Z,6.30
2023-09-20T23:25:40.492Z,6.03
2023-09-20T23:28:11.117Z,4.38
2023-09-20T23:30:41.867Z,6.40
2023-09-20T23:33:14.422Z,6.82
2023-09-20T23:35:56.037Z,6.43
2023-09-20T23:38:26.004Z,8.60
2023-09-20T23:40:53.505Z,7.65
2023-09-20T23:43:22.790Z,7.20
2023-09-20T23:45:50.182Z,7.55
2023-09-20T23:48:18.733Z,8.40
2023-09-20T23:50:46.868Z,6.20
2023-09-20T23:53:14.524Z,7.68
2023-09-20T23:55:44.671Z,5.28
2023-09-20T23:58:13.308Z,7.97
